sensor_id;sensor_type;location;lat;lon;timestamp;temperature;humidity
21335;DHT22;10826;52.536;13.432;2022-08-19T00:01:44;24.80;66.20
21335;DHT22;10826;52.536;13.432;2022-08-19T00:04:13;24.80;66.20
21335;DHT22;10826;52.536;13.432;2022-08-19T00:06:42;24.70;66.00
21335;DHT22;10826;52.536;13.432;2022-08-19T00:09:16;24.70;66.00
21335;DHT22;10826;52.536;13.432;2022-08-19T00:11:44;24.70;65.80
21335;DHT22;10826;52.536;13.432;2022-08-19T00:14:14;24.70;65.80
21335;DHT22;10826;52.536;13.432;2022-08-19T00:16:44;24.70;65.80
21335;DHT22;10826;52.536;13.432;2022-08-19T00:19:11;24.70;65.90
21335;DHT22;10826;52.536;13.432;2022-08-19T00:21:38;24.80;65.90
21335;DHT22;10826;52.536;13.432;2022-08-19T00:24:09;24.80;65.80
21335;DHT22;10826;52.536;13.432;2022-08-19T00:26:37;24.80;65.70
21335;DHT22;10826;52.536;13.432;2022-08-19T00:29:06;24.90;66.00
21335;DHT22;10826;52.536;13.432;2022-08-19T00:31:34;24.90;66.20
21335;DHT22;10826;52.536;13.432;2022-08-19T00:34:01;24.90;66.20
21335;DHT22;10826;52.536;13.432;2022-08-19T00:36:29;25.00;66.20
21335;DHT22;10826;52.536;13.432;2022-08-19T00:38:55;25.00;66.20
21335;DHT22;10826;52.536;13.432;2022-08-19T00:41:23;25.00;66.20
21335;DHT22;10826;52.536;13.432;2022-08-19T00:46:40;25.00;65.80
21335;DHT22;10826;52.536;13.432;2022-08-19T00:49:15;24.90;66.00
21335;DHT22;10826;52.536;13.432;2022-08-19T00:51:48;24.90;66.20
21335;DHT22;10826;52.536;13.432;2022-08-19T00:54:19;24.90;66.50
21335;DHT22;10826;52.536;13.432;2022-08-19T00:56:48;24.90;66.60
21335;DHT22;10826;52.536;13.432;2022-08-19T00:59:16;24.90;66.40
21335;DHT22;10826;52.536;13.432;2022-08-19T01:01:45;24.90;66.60
21335;DHT22;10826;52.536;13.432;2022-08-19T01:04:13;24.90;67.20
21335;DHT22;10826;52.536;13.432;2022-08-19T01:06:40;24.90;67.30
21335;DHT22;10826;52.536;13.432;2022-08-19T01:09:08;24.90;67.90
21335;DHT22;10826;52.536;13.432;2022-08-19T01:11:36;24.80;67.80
21335;DHT22;10826;52.536;13.432;2022-08-19T01:14:06;24.80;68.50
21335;DHT22;10826;52.536;13.432;2022-08-19T01:16:34;24.70;69.10
21335;DHT22;10826;52.536;13.432;2022-08-19T01:19:06;24.70;69.50
21335;DHT22;10826;52.536;13.432;2022-08-19T01:22:34;24.60;69.40
21335;DHT22;10826;52.536;13.432;2022-08-19T01:25:07;24.60;69.20
21335;DHT22;10826;52.536;13.432;2022-08-19T01:27:38;24.50;70.00
21335;DHT22;10826;52.536;13.432;2022-08-19T01:30:08;24.50;70.20
21335;DHT22;10826;52.536;13.432;2022-08-19T01:32:35;24.50;70.50
21335;DHT22;10826;52.536;13.432;2022-08-19T01:35:03;24.50;70.40
21335;DHT22;10826;52.536;13.432;2022-08-19T01:37:40;24.50;70.00
21335;DHT22;10826;52.536;13.432;2022-08-19T01:40:08;24.50;69.90
21335;DHT22;10826;52.536;13.432;2022-08-19T01:42:35;24.50;70.00
21335;DHT22;10826;52.536;13.432;2022-08-19T01:45:01;24.50;70.30
21335;DHT22;10826;52.536;13.432;2022-08-19T01:47:27;24.40;70.40
21335;DHT22;10826;52.536;13.432;2022-08-19T01:49:53;24.50;70.70
21335;DHT22;10826;52.536;13.432;2022-08-19T01:52:19;24.40;70.80
21335;DHT22;10826;52.536;13.432;2022-08-19T01:54:45;24.40;70.80
21335;DHT22;10826;52.536;13.432;2022-08-19T01:57:12;24.30;71.10
21335;DHT22;10826;52.536;13.432;2022-08-19T01:59:41;24.20;71.70
21335;DHT22;10826;52.536;13.432;2022-08-19T02:02:09;24.10;72.60
21335;DHT22;10826;52.536;13.432;2022-08-19T02:04:36;24.00;73.50
21335;DHT22;10826;52.536;13.432;2022-08-19T02:07:07;24.00;74.30
21335;DHT22;10826;52.536;13.432;2022-08-19T02:09:34;23.90;74.30
21335;DHT22;10826;52.536;13.432;2022-08-19T02:12:00;23.80;74.10
21335;DHT22;10826;52.536;13.432;2022-08-19T02:14:27;23.70;74.70
21335;DHT22;10826;52.536;13.432;2022-08-19T02:16:53;23.70;75.30
21335;DHT22;10826;52.536;13.432;2022-08-19T02:19:19;23.60;75.50
21335;DHT22;10826;52.536;13.432;2022-08-19T02:21:45;23.70;75.90
21335;DHT22;10826;52.536;13.432;2022-08-19T02:24:11;23.70;75.90
21335;DHT22;10826;52.536;13.432;2022-08-19T02:26:38;23.70;75.60
21335;DHT22;10826;52.536;13.432;2022-08-19T02:29:07;23.60;74.80
21335;DHT22;10826;52.536;13.432;2022-08-19T02:31:33;23.60;74.70
21335;DHT22;10826;52.536;13.432;2022-08-19T02:33:59;23.50;74.50
21335;DHT22;10826;52.536;13.432;2022-08-19T02:36:28;23.50;74.50
21335;DHT22;10826;52.536;13.432;2022-08-19T02:38:56;23.50;74.60
21335;DHT22;10826;52.536;13.432;2022-08-19T02:41:27;23.40;74.50
21335;DHT22;10826;52.536;13.432;2022-08-19T02:43:57;23.50;74.70
21335;DHT22;10826;52.536;13.432;2022-08-19T02:46:29;23.50;74.70
21335;DHT22;10826;52.536;13.432;2022-08-19T02:49:01;23.60;74.40
21335;DHT22;10826;52.536;13.432;2022-08-19T02:51:35;23.60;73.60
21335;DHT22;10826;52.536;13.432;2022-08-19T02:54:05;23.60;72.90
21335;DHT22;10826;52.536;13.432;2022-08-19T02:56:35;23.60;72.70
21335;DHT22;10826;52.536;13.432;2022-08-19T02:59:03;23.60;72.70
21335;DHT22;10826;52.536;13.432;2022-08-19T03:01:34;23.60;72.60
21335;DHT22;10826;52.536;13.432;2022-08-19T03:04:02;23.60;72.30
21335;DHT22;10826;52.536;13.432;2022-08-19T03:06:31;23.60;72.10
21335;DHT22;10826;52.536;13.432;2022-08-19T03:08:58;23.60;72.10
21335;DHT22;10826;52.536;13.432;2022-08-19T03:11:28;23.60;72.20
21335;DHT22;10826;52.536;13.432;2022-08-19T03:13:56;23.60;71.80
21335;DHT22;10826;52.536;13.432;2022-08-19T03:16:24;23.70;71.70
21335;DHT22;10826;52.536;13.432;2022-08-19T03:18:55;23.60;71.40
21335;DHT22;10826;52.536;13.432;2022-08-19T03:21:27;23.60;70.90
21335;DHT22;10826;52.536;13.432;2022-08-19T03:24:06;23.50;71.00
21335;DHT22;10826;52.536;13.432;2022-08-19T03:26:38;23.50;71.20
21335;DHT22;10826;52.536;13.432;2022-08-19T03:29:06;23.50;71.10
21335;DHT22;10826;52.536;13.432;2022-08-19T03:31:33;23.40;71.20
21335;DHT22;10826;52.536;13.432;2022-08-19T03:33:59;23.30;71.30
21335;DHT22;10826;52.536;13.432;2022-08-19T03:36:26;23.30;71.50
21335;DHT22;10826;52.536;13.432;2022-08-19T03:38:55;23.20;71.40
21335;DHT22;10826;52.536;13.432;2022-08-19T03:41:25;23.30;71.70
21335;DHT22;10826;52.536;13.432;2022-08-19T03:43:53;23.20;71.60
21335;DHT22;10826;52.536;13.432;2022-08-19T03:46:28;23.20;71.70
21335;DHT22;10826;52.536;13.432;2022-08-19T03:48:57;23.10;71.90
21335;DHT22;10826;52.536;13.432;2022-08-19T03:51:34;23.10;71.90
21335;DHT22;10826;52.536;13.432;2022-08-19T03:54:04;23.10;71.70
21335;DHT22;10826;52.536;13.432;2022-08-19T03:56:34;23.10;71.80
21335;DHT22;10826;52.536;13.432;2022-08-19T03:59:03;23.10;71.80
21335;DHT22;10826;52.536;13.432;2022-08-19T04:01:31;23.20;71.70
21335;DHT22;10826;52.536;13.432;2022-08-19T04:03:58;23.10;71.80
21335;DHT22;10826;52.536;13.432;2022-08-19T04:06:28;23.20;71.50
21335;DHT22;10826;52.536;13.432;2022-08-19T04:08:59;23.10;71.50
21335;DHT22;10826;52.536;13.432;2022-08-19T04:11:34;23.10;71.50
21335;DHT22;10826;52.536;13.432;2022-08-19T04:14:04;23.10;72.10
21335;DHT22;10826;52.536;13.432;2022-08-19T04:16:31;23.10;71.50
21335;DHT22;10826;52.536;13.432;2022-08-19T04:19:01;23.10;71.50
21335;DHT22;10826;52.536;13.432;2022-08-19T04:21:32;23.20;71.40
21335;DHT22;10826;52.536;13.432;2022-08-19T04:23:59;23.20;71.10
21335;DHT22;10826;52.536;13.432;2022-08-19T04:26:33;23.20;71.00
21335;DHT22;10826;52.536;13.432;2022-08-19T04:29:03;23.30;71.00
21335;DHT22;10826;52.536;13.432;2022-08-19T04:31:33;23.30;71.00
21335;DHT22;10826;52.536;13.432;2022-08-19T04:34:07;23.30;70.80
21335;DHT22;10826;52.536;13.432;2022-08-19T04:36:40;23.30;70.80
21335;DHT22;10826;52.536;13.432;2022-08-19T04:39:18;23.30;70.90
21335;DHT22;10826;52.536;13.432;2022-08-19T04:42:10;23.30;70.80
21335;DHT22;10826;52.536;13.432;2022-08-19T04:44:54;23.30;70.90
21335;DHT22;10826;52.536;13.432;2022-08-19T04:47:20;23.40;70.80
21335;DHT22;10826;52.536;13.432;2022-08-19T04:49:46;23.30;70.70
21335;DHT22;10826;52.536;13.432;2022-08-19T04:52:13;23.40;70.70
21335;DHT22;10826;52.536;13.432;2022-08-19T04:54:39;23.40;70.80
21335;DHT22;10826;52.536;13.432;2022-08-19T04:57:08;23.50;70.70
21335;DHT22;10826;52.536;13.432;2022-08-19T04:59:37;23.50;70.40
21335;DHT22;10826;52.536;13.432;2022-08-19T05:02:07;23.50;70.30
21335;DHT22;10826;52.536;13.432;2022-08-19T05:04:34;23.60;70.10
21335;DHT22;10826;52.536;13.432;2022-08-19T05:07:03;23.60;69.80
21335;DHT22;10826;52.536;13.432;2022-08-19T05:09:30;23.70;69.80
21335;DHT22;10826;52.536;13.432;2022-08-19T05:11:56;23.70;69.70
21335;DHT22;10826;52.536;13.432;2022-08-19T05:14:22;23.70;69.40
21335;DHT22;10826;52.536;13.432;2022-08-19T05:16:48;23.70;69.40
21335;DHT22;10826;52.536;13.432;2022-08-19T05:19:14;23.70;69.40
21335;DHT22;10826;52.536;13.432;2022-08-19T05:22:00;23.70;69.60
21335;DHT22;10826;52.536;13.432;2022-08-19T05:24:45;23.70;69.70
21335;DHT22;10826;52.536;13.432;2022-08-19T05:27:12;23.70;69.80
21335;DHT22;10826;52.536;13.432;2022-08-19T05:29:38;23.80;69.70
21335;DHT22;10826;52.536;13.432;2022-08-19T05:32:05;23.80;69.50
21335;DHT22;10826;52.536;13.432;2022-08-19T05:34:35;23.90;69.50
21335;DHT22;10826;52.536;13.432;2022-08-19T05:37:04;23.90;69.40
21335;DHT22;10826;52.536;13.432;2022-08-19T05:39:35;23.90;69.30
21335;DHT22;10826;52.536;13.432;2022-08-19T05:42:09;24.00;69.20
21335;DHT22;10826;52.536;13.432;2022-08-19T05:44:40;24.00;68.60
21335;DHT22;10826;52.536;13.432;2022-08-19T05:47:13;24.10;68.50
21335;DHT22;10826;52.536;13.432;2022-08-19T05:49:40;24.10;68.50
21335;DHT22;10826;52.536;13.432;2022-08-19T05:52:10;24.10;68.50
21335;DHT22;10826;52.536;13.432;2022-08-19T05:54:39;24.20;68.00
21335;DHT22;10826;52.536;13.432;2022-08-19T05:57:07;24.20;68.00
21335;DHT22;10826;52.536;13.432;2022-08-19T05:59:34;24.20;67.90
21335;DHT22;10826;52.536;13.432;2022-08-19T06:02:04;24.20;67.90
21335;DHT22;10826;52.536;13.432;2022-08-19T06:04:32;24.30;68.10
21335;DHT22;10826;52.536;13.432;2022-08-19T06:06:57;24.40;67.80
21335;DHT22;10826;52.536;13.432;2022-08-19T06:09:24;24.50;67.70
21335;DHT22;10826;52.536;13.432;2022-08-19T06:11:56;24.60;67.40
21335;DHT22;10826;52.536;13.432;2022-08-19T06:14:29;24.80;67.00
21335;DHT22;10826;52.536;13.432;2022-08-19T06:16:57;24.80;67.40
21335;DHT22;10826;52.536;13.432;2022-08-19T06:19:25;25.00;66.10
21335;DHT22;10826;52.536;13.432;2022-08-19T06:21:52;25.00;65.70
21335;DHT22;10826;52.536;13.432;2022-08-19T06:24:21;25.10;65.60
21335;DHT22;10826;52.536;13.432;2022-08-19T06:26:50;25.20;65.20
21335;DHT22;10826;52.536;13.432;2022-08-19T06:29:20;25.20;65.00
21335;DHT22;10826;52.536;13.432;2022-08-19T06:31:50;25.30;64.70
21335;DHT22;10826;52.536;13.432;2022-08-19T06:34:18;25.30;64.50
21335;DHT22;10826;52.536;13.432;2022-08-19T06:36:48;25.30;64.60
21335;DHT22;10826;52.536;13.432;2022-08-19T06:39:26;25.30;64.40
21335;DHT22;10826;52.536;13.432;2022-08-19T06:41:56;25.30;64.20
21335;DHT22;10826;52.536;13.432;2022-08-19T06:44:26;25.30;64.40
21335;DHT22;10826;52.536;13.432;2022-08-19T06:46:55;25.40;64.50
21335;DHT22;10826;52.536;13.432;2022-08-19T06:49:22;25.50;64.20
21335;DHT22;10826;52.536;13.432;2022-08-19T06:51:50;25.60;64.10
21335;DHT22;10826;52.536;13.432;2022-08-19T06:54:17;25.70;63.30
21335;DHT22;10826;52.536;13.432;2022-08-19T06:56:44;25.80;63.10
21335;DHT22;10826;52.536;13.432;2022-08-19T06:59:14;25.90;62.80
21335;DHT22;10826;52.536;13.432;2022-08-19T07:01:53;26.00;63.10
21335;DHT22;10826;52.536;13.432;2022-08-19T07:04:24;26.10;62.40
21335;DHT22;10826;52.536;13.432;2022-08-19T07:07:02;26.10;62.20
21335;DHT22;10826;52.536;13.432;2022-08-19T07:09:41;26.20;62.10
21335;DHT22;10826;52.536;13.432;2022-08-19T07:12:12;26.20;62.30
21335;DHT22;10826;52.536;13.432;2022-08-19T07:14:41;26.30;62.10
21335;DHT22;10826;52.536;13.432;2022-08-19T07:17:11;26.40;61.80
21335;DHT22;10826;52.536;13.432;2022-08-19T07:19:39;26.30;61.50
21335;DHT22;10826;52.536;13.432;2022-08-19T07:22:06;26.40;61.30
21335;DHT22;10826;52.536;13.432;2022-08-19T07:24:34;26.40;61.20
21335;DHT22;10826;52.536;13.432;2022-08-19T07:27:03;26.40;61.20
21335;DHT22;10826;52.536;13.432;2022-08-19T07:29:33;26.40;61.20
21335;DHT22;10826;52.536;13.432;2022-08-19T07:32:01;26.40;61.20
21335;DHT22;10826;52.536;13.432;2022-08-19T07:34:29;26.40;61.00
21335;DHT22;10826;52.536;13.432;2022-08-19T07:36:56;26.50;61.00
21335;DHT22;10826;52.536;13.432;2022-08-19T07:39:28;26.50;60.90
21335;DHT22;10826;52.536;13.432;2022-08-19T07:41:58;26.50;60.70
21335;DHT22;10826;52.536;13.432;2022-08-19T07:44:26;26.60;60.70
21335;DHT22;10826;52.536;13.432;2022-08-19T07:46:54;26.50;60.70
21335;DHT22;10826;52.536;13.432;2022-08-19T07:49:23;26.50;60.80
21335;DHT22;10826;52.536;13.432;2022-08-19T07:51:52;26.60;60.80
21335;DHT22;10826;52.536;13.432;2022-08-19T07:54:23;26.70;60.50
21335;DHT22;10826;52.536;13.432;2022-08-19T07:56:53;26.70;60.40
21335;DHT22;10826;52.536;13.432;2022-08-19T07:59:20;26.70;60.40
21335;DHT22;10826;52.536;13.432;2022-08-19T08:01:48;26.70;60.60
21335;DHT22;10826;52.536;13.432;2022-08-19T08:04:16;26.70;60.50
21335;DHT22;10826;52.536;13.432;2022-08-19T08:07:02;26.70;60.70
21335;DHT22;10826;52.536;13.432;2022-08-19T08:09:48;26.80;60.40
21335;DHT22;10826;52.536;13.432;2022-08-19T08:12:21;26.80;60.10
21335;DHT22;10826;52.536;13.432;2022-08-19T08:14:55;26.90;59.70
21335;DHT22;10826;52.536;13.432;2022-08-19T08:17:26;26.90;59.70
21335;DHT22;10826;52.536;13.432;2022-08-19T08:19:54;26.90;59.30
21335;DHT22;10826;52.536;13.432;2022-08-19T08:22:22;26.90;59.40
21335;DHT22;10826;52.536;13.432;2022-08-19T08:25:16;27.00;60.00
21335;DHT22;10826;52.536;13.432;2022-08-19T08:27:46;27.20;59.70
21335;DHT22;10826;52.536;13.432;2022-08-19T08:30:22;27.20;59.50
21335;DHT22;10826;52.536;13.432;2022-08-19T08:32:50;27.20;59.30
21335;DHT22;10826;52.536;13.432;2022-08-19T08:35:19;27.20;59.40
21335;DHT22;10826;52.536;13.432;2022-08-19T08:37:49;27.20;59.50
21335;DHT22;10826;52.536;13.432;2022-08-19T08:46:09;27.20;59.10
21335;DHT22;10826;52.536;13.432;2022-08-19T08:48:56;27.30;59.00
21335;DHT22;10826;52.536;13.432;2022-08-19T08:51:37;27.40;59.80
21335;DHT22;10826;52.536;13.432;2022-08-19T08:54:10;27.60;59.30
21335;DHT22;10826;52.536;13.432;2022-08-19T08:56:40;27.70;58.60
21335;DHT22;10826;52.536;13.432;2022-08-19T08:59:31;27.80;58.20
21335;DHT22;10826;52.536;13.432;2022-08-19T09:02:02;27.90;57.50
21335;DHT22;10826;52.536;13.432;2022-08-19T09:04:28;27.80;57.70
21335;DHT22;10826;52.536;13.432;2022-08-19T09:07:13;27.90;57.90
21335;DHT22;10826;52.536;13.432;2022-08-19T09:09:52;28.00;57.60
21335;DHT22;10826;52.536;13.432;2022-08-19T09:16:16;28.00;57.10
21335;DHT22;10826;52.536;13.432;2022-08-19T09:18:51;27.80;57.90
21335;DHT22;10826;52.536;13.432;2022-08-19T09:21:23;27.70;57.70
21335;DHT22;10826;52.536;13.432;2022-08-19T09:23:51;27.70;58.00
21335;DHT22;10826;52.536;13.432;2022-08-19T09:26:20;27.70;57.90
21335;DHT22;10826;52.536;13.432;2022-08-19T09:28:50;27.70;58.20
21335;DHT22;10826;52.536;13.432;2022-08-19T09:31:23;27.70;57.80
21335;DHT22;10826;52.536;13.432;2022-08-19T09:33:51;27.70;58.10
21335;DHT22;10826;52.536;13.432;2022-08-19T09:36:19;27.70;58.10
21335;DHT22;10826;52.536;13.432;2022-08-19T09:38:47;27.80;58.20
21335;DHT22;10826;52.536;13.432;2022-08-19T09:41:16;27.90;57.80
21335;DHT22;10826;52.536;13.432;2022-08-19T09:43:48;28.10;57.70
21335;DHT22;10826;52.536;13.432;2022-08-19T09:46:17;28.30;57.40
21335;DHT22;10826;52.536;13.432;2022-08-19T09:48:46;28.60;56.50
21335;DHT22;10826;52.536;13.432;2022-08-19T09:51:19;28.70;55.70
21335;DHT22;10826;52.536;13.432;2022-08-19T09:53:51;28.80;55.60
21335;DHT22;10826;52.536;13.432;2022-08-19T09:56:20;29.00;55.50
21335;DHT22;10826;52.536;13.432;2022-08-19T09:58:47;29.10;54.80
21335;DHT22;10826;52.536;13.432;2022-08-19T10:01:25;29.00;54.40
21335;DHT22;10826;52.536;13.432;2022-08-19T10:03:54;29.10;54.70
21335;DHT22;10826;52.536;13.432;2022-08-19T10:06:23;29.10;54.50
21335;DHT22;10826;52.536;13.432;2022-08-19T10:08:51;29.10;54.60
21335;DHT22;10826;52.536;13.432;2022-08-19T10:11:19;29.20;54.00
21335;DHT22;10826;52.536;13.432;2022-08-19T10:13:46;29.20;54.00
21335;DHT22;10826;52.536;13.432;2022-08-19T10:16:15;29.20;53.90
21335;DHT22;10826;52.536;13.432;2022-08-19T10:18:45;29.20;53.90
21335;DHT22;10826;52.536;13.432;2022-08-19T10:21:20;29.20;54.10
21335;DHT22;10826;52.536;13.432;2022-08-19T10:23:51;29.20;54.20
21335;DHT22;10826;52.536;13.432;2022-08-19T10:26:21;29.10;54.20
21335;DHT22;10826;52.536;13.432;2022-08-19T10:28:49;28.90;53.90
21335;DHT22;10826;52.536;13.432;2022-08-19T10:31:18;28.80;54.40
21335;DHT22;10826;52.536;13.432;2022-08-19T10:33:47;28.70;54.60
21335;DHT22;10826;52.536;13.432;2022-08-19T10:36:17;28.50;55.20
21335;DHT22;10826;52.536;13.432;2022-08-19T10:38:48;28.40;55.60
21335;DHT22;10826;52.536;13.432;2022-08-19T10:41:18;28.30;56.00
21335;DHT22;10826;52.536;13.432;2022-08-19T10:43:51;28.20;56.40
21335;DHT22;10826;52.536;13.432;2022-08-19T10:46:21;28.00;56.80
21335;DHT22;10826;52.536;13.432;2022-08-19T10:48:48;27.90;56.80
21335;DHT22;10826;52.536;13.432;2022-08-19T10:51:15;27.90;56.80
21335;DHT22;10826;52.536;13.432;2022-08-19T10:54:01;27.90;56.70
21335;DHT22;10826;52.536;13.432;2022-08-19T10:56:28;28.00;57.20
21335;DHT22;10826;52.536;13.432;2022-08-19T10:59:13;28.10;56.70
21335;DHT22;10826;52.536;13.432;2022-08-19T11:01:42;28.20;56.60
21335;DHT22;10826;52.536;13.432;2022-08-19T11:04:09;28.30;56.30
21335;DHT22;10826;52.536;13.432;2022-08-19T11:06:37;28.30;56.10
21335;DHT22;10826;52.536;13.432;2022-08-19T11:09:05;28.40;56.00
21335;DHT22;10826;52.536;13.432;2022-08-19T11:11:31;28.40;55.90
21335;DHT22;10826;52.536;13.432;2022-08-19T11:13:58;28.50;55.60
21335;DHT22;10826;52.536;13.432;2022-08-19T11:16:26;28.50;55.70
21335;DHT22;10826;52.536;13.432;2022-08-19T11:18:55;28.60;55.80
21335;DHT22;10826;52.536;13.432;2022-08-19T11:21:25;28.60;55.20
21335;DHT22;10826;52.536;13.432;2022-08-19T11:23:55;28.50;55.10
21335;DHT22;10826;52.536;13.432;2022-08-19T11:26:23;28.40;55.80
21335;DHT22;10826;52.536;13.432;2022-08-19T11:28:50;28.30;55.40
21335;DHT22;10826;52.536;13.432;2022-08-19T11:31:22;28.20;56.00
21335;DHT22;10826;52.536;13.432;2022-08-19T11:33:51;28.20;56.30
21335;DHT22;10826;52.536;13.432;2022-08-19T11:36:18;28.30;56.50
21335;DHT22;10826;52.536;13.432;2022-08-19T11:38:49;28.30;56.30
21335;DHT22;10826;52.536;13.432;2022-08-19T11:41:18;28.40;55.90
21335;DHT22;10826;52.536;13.432;2022-08-19T11:43:46;28.40;55.90
21335;DHT22;10826;52.536;13.432;2022-08-19T11:46:13;28.40;55.90
21335;DHT22;10826;52.536;13.432;2022-08-19T11:48:41;28.50;55.90
21335;DHT22;10826;52.536;13.432;2022-08-19T11:51:11;28.50;55.80
21335;DHT22;10826;52.536;13.432;2022-08-19T11:53:42;28.50;55.60
21335;DHT22;10826;52.536;13.432;2022-08-19T11:56:09;28.40;55.70
21335;DHT22;10826;52.536;13.432;2022-08-19T11:58:35;28.30;55.40
21335;DHT22;10826;52.536;13.432;2022-08-19T12:01:04;28.20;55.80
21335;DHT22;10826;52.536;13.432;2022-08-19T12:03:31;28.00;56.30
21335;DHT22;10826;52.536;13.432;2022-08-19T12:05:57;27.90;56.00
21335;DHT22;10826;52.536;13.432;2022-08-19T12:08:23;27.90;56.00
21335;DHT22;10826;52.536;13.432;2022-08-19T12:10:49;28.00;56.50
21335;DHT22;10826;52.536;13.432;2022-08-19T12:13:15;28.10;56.50
21335;DHT22;10826;52.536;13.432;2022-08-19T12:15:41;28.20;56.20
21335;DHT22;10826;52.536;13.432;2022-08-19T12:18:08;28.30;55.90
21335;DHT22;10826;52.536;13.432;2022-08-19T12:20:38;28.40;55.10
21335;DHT22;10826;52.536;13.432;2022-08-19T12:23:07;28.40;54.70
21335;DHT22;10826;52.536;13.432;2022-08-19T12:25:35;28.40;54.80
21335;DHT22;10826;52.536;13.432;2022-08-19T12:28:03;28.40;54.80
21335;DHT22;10826;52.536;13.432;2022-08-19T12:30:29;28.40;55.00
21335;DHT22;10826;52.536;13.432;2022-08-19T12:32:55;28.50;54.80
21335;DHT22;10826;52.536;13.432;2022-08-19T12:35:20;28.50;54.80
21335;DHT22;10826;52.536;13.432;2022-08-19T12:37:48;28.60;55.00
21335;DHT22;10826;52.536;13.432;2022-08-19T12:40:15;28.70;54.50
21335;DHT22;10826;52.536;13.432;2022-08-19T12:42:43;28.90;54.20
21335;DHT22;10826;52.536;13.432;2022-08-19T12:45:10;29.10;53.60
21335;DHT22;10826;52.536;13.432;2022-08-19T12:47:38;29.20;52.60
21335;DHT22;10826;52.536;13.432;2022-08-19T12:50:06;29.20;52.20
21335;DHT22;10826;52.536;13.432;2022-08-19T12:52:35;29.20;52.50
21335;DHT22;10826;52.536;13.432;2022-08-19T12:55:08;29.20;52.70
21335;DHT22;10826;52.536;13.432;2022-08-19T12:57:34;29.20;52.50
21335;DHT22;10826;52.536;13.432;2022-08-19T13:00:08;29.30;52.60
21335;DHT22;10826;52.536;13.432;2022-08-19T13:02:38;29.30;52.00
21335;DHT22;10826;52.536;13.432;2022-08-19T13:05:08;29.20;51.80
21335;DHT22;10826;52.536;13.432;2022-08-19T13:07:38;29.20;51.80
21335;DHT22;10826;52.536;13.432;2022-08-19T13:10:07;29.10;52.60
21335;DHT22;10826;52.536;13.432;2022-08-19T13:12:35;29.00;52.40
21335;DHT22;10826;52.536;13.432;2022-08-19T13:15:01;29.00;52.70
21335;DHT22;10826;52.536;13.432;2022-08-19T13:17:27;28.90;52.30
21335;DHT22;10826;52.536;13.432;2022-08-19T13:19:53;28.90;52.20
21335;DHT22;10826;52.536;13.432;2022-08-19T13:22:19;29.00;52.90
21335;DHT22;10826;52.536;13.432;2022-08-19T13:24:45;29.10;52.50
21335;DHT22;10826;52.536;13.432;2022-08-19T13:27:11;29.20;52.10
21335;DHT22;10826;52.536;13.432;2022-08-19T13:29:37;29.30;51.80
21335;DHT22;10826;52.536;13.432;2022-08-19T13:32:24;29.30;51.80
21335;DHT22;10826;52.536;13.432;2022-08-19T13:35:08;29.20;52.50
21335;DHT22;10826;52.536;13.432;2022-08-19T13:37:34;29.20;51.90
21335;DHT22;10826;52.536;13.432;2022-08-19T13:40:15;29.30;51.90
21335;DHT22;10826;52.536;13.432;2022-08-19T13:42:46;29.20;51.30
21335;DHT22;10826;52.536;13.432;2022-08-19T13:45:15;29.20;51.50
21335;DHT22;10826;52.536;13.432;2022-08-19T13:47:49;29.20;51.60
21335;DHT22;10826;52.536;13.432;2022-08-19T13:50:20;29.20;51.80
21335;DHT22;10826;52.536;13.432;2022-08-19T13:52:48;29.20;51.80
21335;DHT22;10826;52.536;13.432;2022-08-19T13:55:15;29.20;51.40
21335;DHT22;10826;52.536;13.432;2022-08-19T13:57:45;29.30;51.50
21335;DHT22;10826;52.536;13.432;2022-08-19T14:00:16;29.30;51.30
21335;DHT22;10826;52.536;13.432;2022-08-19T14:02:44;29.30;51.40
21335;DHT22;10826;52.536;13.432;2022-08-19T14:05:14;29.20;51.70
21335;DHT22;10826;52.536;13.432;2022-08-19T14:07:41;29.30;51.60
21335;DHT22;10826;52.536;13.432;2022-08-19T14:10:09;29.20;51.70
21335;DHT22;10826;52.536;13.432;2022-08-19T14:12:36;29.20;51.50
21335;DHT22;10826;52.536;13.432;2022-08-19T14:15:04;29.00;51.80
21335;DHT22;10826;52.536;13.432;2022-08-19T14:17:33;29.00;52.30
21335;DHT22;10826;52.536;13.432;2022-08-19T14:20:02;29.00;52.30
21335;DHT22;10826;52.536;13.432;2022-08-19T14:22:34;29.00;52.20
21335;DHT22;10826;52.536;13.432;2022-08-19T14:25:02;29.00;52.10
21335;DHT22;10826;52.536;13.432;2022-08-19T14:27:33;28.90;51.80
21335;DHT22;10826;52.536;13.432;2022-08-19T14:29:59;29.00;52.30
21335;DHT22;10826;52.536;13.432;2022-08-19T14:32:25;29.00;52.20
21335;DHT22;10826;52.536;13.432;2022-08-19T14:34:52;29.00;52.00
21335;DHT22;10826;52.536;13.432;2022-08-19T14:37:18;29.10;51.50
21335;DHT22;10826;52.536;13.432;2022-08-19T14:39:44;29.00;51.30
21335;DHT22;10826;52.536;13.432;2022-08-19T14:42:11;28.90;50.80
21335;DHT22;10826;52.536;13.432;2022-08-19T14:44:40;28.90;51.00
21335;DHT22;10826;52.536;13.432;2022-08-19T14:47:07;28.80;51.20
21335;DHT22;10826;52.536;13.432;2022-08-19T14:49:34;28.70;50.90
21335;DHT22;10826;52.536;13.432;2022-08-19T14:52:01;28.60;51.10
21335;DHT22;10826;52.536;13.432;2022-08-19T14:54:28;28.50;51.30
21335;DHT22;10826;52.536;13.432;2022-08-19T14:56:54;28.40;51.60
21335;DHT22;10826;52.536;13.432;2022-08-19T14:59:19;28.40;51.70
21335;DHT22;10826;52.536;13.432;2022-08-19T15:01:45;28.30;52.00
21335;DHT22;10826;52.536;13.432;2022-08-19T15:04:11;28.30;52.20
21335;DHT22;10826;52.536;13.432;2022-08-19T15:06:37;28.20;52.50
21335;DHT22;10826;52.536;13.432;2022-08-19T15:09:03;28.30;52.70
21335;DHT22;10826;52.536;13.432;2022-08-19T15:11:29;28.30;52.90
21335;DHT22;10826;52.536;13.432;2022-08-19T15:13:59;28.30;53.00
21335;DHT22;10826;52.536;13.432;2022-08-19T15:16:26;28.40;53.10
21335;DHT22;10826;52.536;13.432;2022-08-19T15:18:56;28.40;53.10
21335;DHT22;10826;52.536;13.432;2022-08-19T15:21:25;28.50;53.10
21335;DHT22;10826;52.536;13.432;2022-08-19T15:23:53;28.50;53.10
21335;DHT22;10826;52.536;13.432;2022-08-19T15:26:20;28.40;52.80
21335;DHT22;10826;52.536;13.432;2022-08-19T15:28:47;28.30;52.90
21335;DHT22;10826;52.536;13.432;2022-08-19T15:31:18;28.30;53.10
21335;DHT22;10826;52.536;13.432;2022-08-19T15:33:46;28.30;53.10
21335;DHT22;10826;52.536;13.432;2022-08-19T15:36:13;28.10;53.40
21335;DHT22;10826;52.536;13.432;2022-08-19T15:38:39;27.90;53.20
21335;DHT22;10826;52.536;13.432;2022-08-19T15:41:23;27.80;53.50
21335;DHT22;10826;52.536;13.432;2022-08-19T15:44:15;27.70;53.80